Wahoo, Nebraska
Current Conditions -  °F | °C
As of 10:15 PM on Wednesday 26 Nov 2014 (Local Time) from KAHQ Reporting Station
Overcast Overcast  
Wind Chill:   Ceiling: 1300
Heat Index: 21°   Visibility: 10mi
Dew Point: 16°   Wind: 13mph
Humidity: 80%   Direction: 350°N
Pressure: 30.43"   Gusts: 17mph
Location:  41.21°N, 96.62°W
Report Text: KAHQ 270415Z AUTO 35011G15KT 10SM OVC013 M06/M09 A3043 RMK AO2 T10601089
Loading
Personal Weather Stations






























Interactive Weather Map New forecast layout! Learn more

10-Day Weather Forecast

Advertisements
Track Severe Weather on mobile